createdAt,value
2019-04-29T06:00:31.417Z,28.12
2019-04-29T06:01:31.383Z,22.50
2019-04-29T06:02:33.698Z,28.12
2019-04-29T06:03:33.513Z,28.12
2019-04-29T06:04:32.390Z,33.75
2019-04-29T06:05:31.354Z,22.50
2019-04-29T06:06:31.328Z,16.88
2019-04-29T06:07:31.329Z,16.88
2019-04-29T06:08:34.478Z,22.50
2019-04-29T06:09:32.331Z,22.50
2019-04-29T06:10:31.298Z,22.50
2019-04-29T06:11:31.378Z,22.50
2019-04-29T06:12:31.264Z,28.12
2019-04-29T06:13:31.260Z,22.50
2019-04-29T06:14:31.268Z,22.50
2019-04-29T06:15:31.251Z,28.12
2019-04-29T06:16:31.263Z,28.12
2019-04-29T06:17:31.220Z,33.75
2019-04-29T06:18:31.200Z,33.75
2019-04-29T06:19:31.186Z,33.75
2019-04-29T06:20:31.176Z,45.00
2019-04-29T06:21:31.173Z,39.38
2019-04-29T06:22:31.179Z,45.00
2019-04-29T06:23:31.141Z,45.00
2019-04-29T06:24:31.166Z,84.38
2019-04-29T06:25:31.132Z,73.12
2019-04-29T06:26:31.120Z,78.75
2019-04-29T06:27:33.363Z,78.75
2019-04-29T06:28:31.093Z,106.88
2019-04-29T06:29:31.097Z,106.88
2019-04-29T06:30:31.066Z,135.00
2019-04-29T06:31:31.076Z,140.62
2019-04-29T06:32:31.070Z,106.88
2019-04-29T06:33:31.107Z,84.38
2019-04-29T06:34:31.022Z,73.12
2019-04-29T06:35:31.008Z,67.50
2019-04-29T06:36:30.999Z,84.38
2019-04-29T06:37:31.008Z,73.12
2019-04-29T06:38:30.976Z,84.38
2019-04-29T06:39:30.991Z,73.12
2019-04-29T06:40:35.297Z,73.12
2019-04-29T06:41:31.961Z,73.12
2019-04-29T06:42:33.447Z,73.12
2019-04-29T06:43:30.929Z,67.50
2019-04-29T06:44:30.922Z,73.12
2019-04-29T06:45:30.928Z,67.50
2019-04-29T06:46:30.892Z,56.25
2019-04-29T06:47:30.874Z,67.50
2019-04-29T06:48:30.868Z,61.88
2019-04-29T06:49:30.860Z,73.12
2019-04-29T06:50:30.855Z,67.50
2019-04-29T06:51:30.850Z,61.88
2019-04-29T06:52:30.855Z,61.88
2019-04-29T06:53:30.807Z,61.88
2019-04-29T06:54:30.804Z,61.88
2019-04-29T06:55:30.806Z,56.25
2019-04-29T06:56:30.785Z,67.50
2019-04-29T06:57:30.796Z,61.88
2019-04-29T06:58:32.520Z,61.88
2019-04-29T06:59:31.736Z,56.25
2019-04-29T07:00:30.728Z,61.88
2019-04-29T07:01:33.137Z,73.12
2019-04-29T07:02:31.704Z,56.25
2019-04-29T07:03:30.700Z,73.12
2019-04-29T07:04:36.063Z,67.50
2019-04-29T07:05:31.686Z,50.62
2019-04-29T07:06:31.525Z,56.25
2019-04-29T07:07:30.654Z,45.00
2019-04-29T07:08:30.638Z,50.62
2019-04-29T07:09:30.688Z,45.00
2019-04-29T07:10:30.617Z,45.00
2019-04-29T07:11:31.862Z,45.00
2019-04-29T07:12:31.614Z,50.62
2019-04-29T07:13:30.604Z,50.62
2019-04-29T07:14:32.903Z,33.75
2019-04-29T07:15:30.560Z,33.75
2019-04-29T07:16:32.010Z,39.38
2019-04-29T07:17:30.561Z,39.38
2019-04-29T07:18:30.558Z,28.12
2019-04-29T07:19:30.540Z,33.75
2019-04-29T07:20:32.542Z,33.75
2019-04-29T07:21:31.495Z,28.12
2019-04-29T07:22:31.219Z,33.75
2019-04-29T07:23:30.474Z,33.75
2019-04-29T07:24:30.472Z,28.12
2019-04-29T07:25:30.474Z,33.75
2019-04-29T07:26:30.444Z,56.25
2019-04-29T07:27:30.455Z,61.88
2019-04-29T07:28:30.424Z,56.25
2019-04-29T07:29:32.571Z,50.62
2019-04-29T07:30:30.413Z,50.62
2019-04-29T07:31:33.418Z,50.62
2019-04-29T07:32:32.296Z,50.62
2019-04-29T07:33:30.363Z,56.25
2019-04-29T07:34:33.745Z,50.62
2019-04-29T07:35:31.352Z,45.00
2019-04-29T07:36:30.357Z,50.62
2019-04-29T07:37:34.018Z,45.00
2019-04-29T07:38:41.200Z,39.38
2019-04-29T07:39:33.146Z,33.75
2019-04-29T07:40:30.290Z,33.75
2019-04-29T07:41:30.286Z,33.75
2019-04-29T07:42:32.285Z,39.38
2019-04-29T07:43:30.261Z,45.00
2019-04-29T07:44:43.375Z,56.25
2019-04-29T07:45:43.627Z,56.25
2019-04-29T07:46:36.424Z,61.88
2019-04-29T07:47:31.232Z,56.25
2019-04-29T07:48:30.206Z,56.25
2019-04-29T07:49:30.195Z,56.25
2019-04-29T07:50:30.171Z,61.88
2019-04-29T07:51:30.162Z,67.50
2019-04-29T07:52:30.157Z,61.88
2019-04-29T07:53:40.167Z,56.25
2019-04-29T07:54:31.129Z,56.25
2019-04-29T07:55:30.799Z,67.50
2019-04-29T07:56:30.111Z,61.88
2019-04-29T07:57:30.113Z,61.88
2019-04-29T07:58:30.106Z,67.50
2019-04-29T07:59:33.747Z,67.50
2019-04-29T08:00:31.060Z,67.50
2019-04-29T08:01:30.056Z,61.88
2019-04-29T08:02:30.038Z,50.62
2019-04-29T08:03:30.079Z,61.88
2019-04-29T08:04:30.043Z,56.25
2019-04-29T08:05:30.046Z,56.25
2019-04-29T08:06:29.995Z,56.25
2019-04-29T08:07:30.069Z,45.00
2019-04-29T08:08:29.998Z,39.38
2019-04-29T08:09:29.983Z,33.75
2019-04-29T08:10:29.972Z,33.75
2019-04-29T08:11:29.953Z,33.75
2019-04-29T08:12:29.958Z,39.38
2019-04-29T08:13:29.960Z,45.00
2019-04-29T08:14:29.914Z,45.00
2019-04-29T08:15:31.892Z,56.25
2019-04-29T08:16:29.901Z,61.88
2019-04-29T08:17:29.870Z,61.88
2019-04-29T08:18:29.891Z,61.88
2019-04-29T08:19:31.517Z,61.88
2019-04-29T08:20:29.841Z,61.88
2019-04-29T08:21:29.832Z,67.50
2019-04-29T08:22:29.816Z,90.00
2019-04-29T08:23:33.073Z,95.62
2019-04-29T08:24:30.818Z,101.25
2019-04-29T08:25:29.781Z,163.12
2019-04-29T08:26:33.712Z,208.12
2019-04-29T08:27:39.871Z,241.88
2019-04-29T08:28:30.780Z,275.62
2019-04-29T08:29:30.898Z,230.62
2019-04-29T08:30:30.726Z,146.25
2019-04-29T08:31:29.737Z,123.75
2019-04-29T08:32:31.561Z,112.50
2019-04-29T08:33:30.712Z,123.75
2019-04-29T08:34:29.682Z,106.88
2019-04-29T08:35:32.623Z,118.12
2019-04-29T08:36:30.691Z,95.62
2019-04-29T08:37:29.656Z,118.12
2019-04-29T08:38:29.687Z,157.50
2019-04-29T08:39:31.109Z,191.25
2019-04-29T08:40:29.611Z,225.00
2019-04-29T08:41:30.057Z,264.38
2019-04-29T08:42:29.599Z,337.50
2019-04-29T08:43:29.604Z,348.75
2019-04-29T08:44:29.569Z,337.50
2019-04-29T08:45:29.564Z,331.88
2019-04-29T08:46:29.545Z,337.50
2019-04-29T08:47:31.562Z,410.62
2019-04-29T08:48:29.548Z,360.00
2019-04-29T08:49:29.541Z,388.12
2019-04-29T08:50:29.502Z,438.75
2019-04-29T08:51:29.494Z,331.88
2019-04-29T08:52:29.485Z,360.00
2019-04-29T08:53:29.471Z,320.62
2019-04-29T08:54:29.482Z,253.12
2019-04-29T08:55:30.969Z,331.88
2019-04-29T08:56:29.439Z,326.25
2019-04-29T08:57:31.760Z,275.62
2019-04-29T08:58:30.477Z,382.50
2019-04-29T08:59:29.426Z,455.62
2019-04-29T09:00:29.402Z,371.25
2019-04-29T09:01:33.864Z,303.75
2019-04-29T09:02:35.156Z,281.25
2019-04-29T09:03:40.264Z,202.50
2019-04-29T09:04:33.244Z,270.00
2019-04-29T09:05:29.339Z,225.00
2019-04-29T09:06:32.662Z,202.50
2019-04-29T09:07:29.320Z,185.62
2019-04-29T09:08:33.037Z,202.50
2019-04-29T09:09:30.377Z,185.62
2019-04-29T09:10:33.061Z,168.75
2019-04-29T09:12:30.484Z,241.88
2019-04-29T09:13:29.250Z,196.88
2019-04-29T09:14:29.302Z,185.62
2019-04-29T09:15:29.236Z,213.75
2019-04-29T09:16:29.214Z,309.38
2019-04-29T09:17:29.215Z,382.50
2019-04-29T09:18:29.202Z,275.62
2019-04-29T09:19:29.196Z,320.62
2019-04-29T09:20:29.198Z,286.88
2019-04-29T09:21:29.162Z,343.12
2019-04-29T09:22:29.152Z,292.50
2019-04-29T09:23:29.138Z,309.38
2019-04-29T09:24:29.162Z,315.00
2019-04-29T09:25:29.133Z,275.62
2019-04-29T09:26:29.104Z,388.12
2019-04-29T09:27:29.109Z,326.25
2019-04-29T09:28:29.871Z,241.88
2019-04-29T09:29:29.088Z,247.50
2019-04-29T09:30:29.055Z,202.50
2019-04-29T09:31:29.048Z,236.25
2019-04-29T09:32:29.031Z,174.38
2019-04-29T09:33:29.034Z,163.12
2019-04-29T09:34:29.064Z,174.38
2019-04-29T09:35:29.066Z,174.38
2019-04-29T09:36:29.164Z,191.25
2019-04-29T09:37:28.999Z,180.00
2019-04-29T09:38:32.581Z,174.38
2019-04-29T09:39:42.447Z,174.38
2019-04-29T09:40:29.951Z,151.88
2019-04-29T09:42:30.897Z,151.88
2019-04-29T09:43:28.913Z,163.12
2019-04-29T09:44:28.909Z,157.50
2019-04-29T09:45:28.952Z,208.12
2019-04-29T09:46:29.949Z,168.75
2019-04-29T09:47:29.870Z,174.38
2019-04-29T09:48:28.866Z,225.00
2019-04-29T09:49:28.843Z,219.38
2019-04-29T09:50:28.857Z,241.88
2019-04-29T09:51:29.774Z,213.75
2019-04-29T09:52:28.840Z,202.50
2019-04-29T09:53:28.800Z,225.00
2019-04-29T09:54:28.797Z,236.25
2019-04-29T09:55:28.852Z,230.62
2019-04-29T09:56:28.798Z,219.38
2019-04-29T09:57:28.758Z,213.75
2019-04-29T09:58:28.771Z,253.12
2019-04-29T09:59:28.737Z,258.75
2019-04-29T10:00:28.743Z,230.62
2019-04-29T10:01:28.711Z,236.25
2019-04-29T10:02:31.446Z,208.12
2019-04-29T10:03:28.698Z,225.00
2019-04-29T10:04:28.672Z,247.50
2019-04-29T10:05:28.711Z,247.50
2019-04-29T10:06:28.660Z,236.25
2019-04-29T10:07:28.649Z,219.38
2019-04-29T10:08:28.626Z,185.62
2019-04-29T10:09:28.618Z,213.75
2019-04-29T10:10:28.615Z,241.88
2019-04-29T10:11:28.622Z,219.38
2019-04-29T10:12:28.599Z,219.38
2019-04-29T10:13:28.576Z,196.88
2019-04-29T10:14:28.585Z,219.38
2019-04-29T10:15:28.554Z,185.62
2019-04-29T10:16:31.749Z,202.50
2019-04-29T10:17:29.537Z,191.25
2019-04-29T10:18:29.929Z,253.12
2019-04-29T10:19:28.513Z,196.88
2019-04-29T10:20:28.498Z,196.88
2019-04-29T10:21:28.508Z,202.50
2019-04-29T10:22:28.474Z,202.50
2019-04-29T10:23:28.492Z,163.12
2019-04-29T10:24:28.455Z,191.25
2019-04-29T10:25:28.450Z,174.38
2019-04-29T10:26:28.466Z,185.62
2019-04-29T10:27:28.420Z,185.62
2019-04-29T10:28:28.416Z,185.62
2019-04-29T10:29:28.410Z,196.88
2019-04-29T10:30:31.157Z,208.12
2019-04-29T10:31:28.391Z,180.00
2019-04-29T10:32:28.366Z,180.00
2019-04-29T10:33:28.380Z,230.62
2019-04-29T10:34:31.474Z,213.75
2019-04-29T10:35:28.335Z,230.62
2019-04-29T10:36:28.350Z,213.75
2019-04-29T10:37:31.520Z,191.25
2019-04-29T10:38:28.298Z,208.12
2019-04-29T10:39:28.283Z,180.00
2019-04-29T10:40:28.278Z,174.38
2019-04-29T10:41:28.307Z,225.00
2019-04-29T10:42:28.249Z,196.88
2019-04-29T10:43:28.244Z,168.75
2019-04-29T10:44:28.237Z,180.00
2019-04-29T10:45:28.218Z,208.12
2019-04-29T10:46:28.232Z,213.75
2019-04-29T10:47:28.223Z,213.75
2019-04-29T10:48:28.188Z,196.88
2019-04-29T10:49:28.175Z,202.50
2019-04-29T10:50:28.182Z,219.38
2019-04-29T10:51:28.594Z,225.00
2019-04-29T10:52:28.142Z,219.38
2019-04-29T10:53:28.971Z,230.62
2019-04-29T10:54:28.128Z,253.12
2019-04-29T10:55:29.991Z,247.50
2019-04-29T10:56:28.140Z,247.50
2019-04-29T10:57:29.372Z,253.12
2019-04-29T10:58:31.182Z,264.38
2019-04-29T10:59:35.617Z,270.00
2019-04-29T11:00:29.058Z,219.38
2019-04-29T11:01:29.192Z,219.38
2019-04-29T11:02:28.183Z,258.75
2019-04-29T11:03:28.031Z,258.75
2019-04-29T11:04:31.695Z,230.62
2019-04-29T11:05:28.996Z,219.38
2019-04-29T11:06:31.274Z,191.25
2019-04-29T11:07:28.993Z,253.12
2019-04-29T11:08:27.975Z,208.12
2019-04-29T11:09:27.967Z,213.75
2019-04-29T11:10:27.939Z,196.88
2019-04-29T11:11:27.939Z,163.12
2019-04-29T11:12:27.948Z,157.50
2019-04-29T11:13:27.907Z,157.50
2019-04-29T11:14:27.910Z,168.75
2019-04-29T11:15:30.581Z,208.12
2019-04-29T11:16:45.319Z,191.25
2019-04-29T11:17:28.886Z,174.38
2019-04-29T11:18:27.849Z,196.88
2019-04-29T11:19:27.839Z,174.38
2019-04-29T11:20:27.841Z,185.62
2019-04-29T11:21:29.536Z,185.62
2019-04-29T11:22:27.854Z,191.25
2019-04-29T11:23:27.826Z,230.62
2019-04-29T11:24:27.782Z,225.00
2019-04-29T11:25:27.774Z,247.50
2019-04-29T11:26:27.778Z,253.12
2019-04-29T11:27:27.784Z,247.50
2019-04-29T11:28:27.745Z,202.50
2019-04-29T11:29:29.210Z,163.12
2019-04-29T11:30:27.718Z,157.50
2019-04-29T11:31:27.709Z,174.38
2019-04-29T11:32:29.174Z,168.75
2019-04-29T11:33:27.680Z,168.75
2019-04-29T11:34:27.672Z,163.12
2019-04-29T11:35:28.377Z,163.12
2019-04-29T11:36:27.651Z,157.50
2019-04-29T11:37:27.674Z,163.12
2019-04-29T11:38:28.617Z,163.12
2019-04-29T11:39:27.617Z,174.38
2019-04-29T11:40:42.567Z,140.62
2019-04-29T11:41:28.595Z,135.00
2019-04-29T11:42:27.611Z,157.50
2019-04-29T11:43:27.573Z,180.00
2019-04-29T11:44:27.905Z,185.62
2019-04-29T11:45:27.547Z,168.75
2019-04-29T11:46:27.536Z,151.88
2019-04-29T11:47:27.562Z,196.88
2019-04-29T11:48:27.525Z,196.88
2019-04-29T11:49:27.533Z,236.25
2019-04-29T11:50:27.498Z,258.75
2019-04-29T11:51:27.493Z,225.00
2019-04-29T11:52:28.129Z,258.75
2019-04-29T11:53:27.458Z,292.50
2019-04-29T11:54:27.471Z,270.00
2019-04-29T11:55:27.456Z,270.00
2019-04-29T11:56:27.430Z,270.00
2019-04-29T11:57:40.429Z,270.00
2019-04-29T11:58:28.425Z,281.25
2019-04-29T11:59:27.480Z,292.50
2019-04-29T12:00:27.387Z,298.12
2019-04-29T12:01:38.335Z,303.75
2019-04-29T12:02:44.624Z,320.62
2019-04-29T12:03:28.353Z,309.38
2019-04-29T12:04:28.544Z,303.75
2019-04-29T12:05:28.335Z,292.50
2019-04-29T12:06:27.361Z,315.00
2019-04-29T12:07:32.386Z,326.25
2019-04-29T12:08:28.317Z,320.62
2019-04-29T12:09:30.351Z,337.50
2019-04-29T12:10:27.284Z,343.12
2019-04-29T12:11:28.165Z,348.75
2019-04-29T12:12:28.250Z,320.62
2019-04-29T12:13:28.430Z,303.75
2019-04-29T12:14:27.250Z,337.50
2019-04-29T12:15:27.217Z,337.50
2019-04-29T12:16:27.211Z,309.38
2019-04-29T12:17:27.194Z,309.38
2019-04-29T12:18:27.223Z,303.75
2019-04-29T12:19:27.174Z,292.50
2019-04-29T12:20:27.188Z,309.38
2019-04-29T12:21:27.177Z,309.38
2019-04-29T12:22:30.744Z,292.50
2019-04-29T12:23:27.169Z,315.00
2019-04-29T12:24:27.118Z,315.00
2019-04-29T12:25:27.905Z,320.62
2019-04-29T12:26:27.091Z,326.25
2019-04-29T12:27:29.183Z,326.25
2019-04-29T12:28:27.101Z,292.50
2019-04-29T12:29:27.077Z,270.00
2019-04-29T12:30:29.881Z,270.00
2019-04-29T12:31:28.044Z,258.75
2019-04-29T12:32:27.030Z,253.12
2019-04-29T12:33:27.036Z,258.75
2019-04-29T12:34:27.026Z,270.00
2019-04-29T12:35:30.032Z,270.00
2019-04-29T12:36:26.983Z,286.88
2019-04-29T12:37:29.847Z,298.12
2019-04-29T12:38:39.339Z,303.75
2019-04-29T12:39:42.826Z,303.75
2019-04-29T12:40:27.938Z,320.62
2019-04-29T12:41:30.335Z,343.12
2019-04-29T12:42:26.927Z,365.62
2019-04-29T12:43:26.922Z,410.62
2019-04-29T12:44:35.063Z,472.50
2019-04-29T12:45:28.035Z,528.75
2019-04-29T12:46:26.877Z,562.50
2019-04-29T12:47:27.279Z,607.50
2019-04-29T12:48:26.969Z,669.38
2019-04-29T12:49:26.854Z,680.62
2019-04-29T12:50:26.820Z,697.50
2019-04-29T12:51:26.816Z,1687.50
2019-04-29T12:52:26.817Z,900.00
2019-04-29T12:53:26.797Z,1400.62
2019-04-29T12:54:26.800Z,871.88
2019-04-29T12:55:43.573Z,725.62
2019-04-29T12:56:27.768Z,720.00
2019-04-29T12:57:26.748Z,691.88
2019-04-29T12:58:26.739Z,697.50
2019-04-29T12:59:30.627Z,703.12
2019-04-29T13:00:27.715Z,669.38
2019-04-29T13:01:50.208Z,663.75
2019-04-29T13:02:27.853Z,675.00
2019-04-29T13:03:30.839Z,675.00
2019-04-29T13:04:28.098Z,675.00
2019-04-29T13:05:26.672Z,641.25
2019-04-29T13:06:38.754Z,596.25
2019-04-29T13:07:27.636Z,624.38
2019-04-29T13:08:26.705Z,624.38
2019-04-29T13:09:26.637Z,618.75
2019-04-29T13:10:26.611Z,590.62
2019-04-29T13:11:36.076Z,568.12
2019-04-29T13:12:30.279Z,562.50
2019-04-29T13:13:26.573Z,540.00
2019-04-29T13:14:28.652Z,517.50
2019-04-29T13:15:27.553Z,489.38
2019-04-29T13:16:26.557Z,461.25
2019-04-29T13:17:30.198Z,438.75
2019-04-29T13:18:26.543Z,399.38
2019-04-29T13:19:29.744Z,388.12
2019-04-29T13:20:26.500Z,376.88
2019-04-29T13:21:26.495Z,360.00
2019-04-29T13:22:26.471Z,348.75
2019-04-29T13:23:35.983Z,360.00
2019-04-29T13:24:27.748Z,343.12
2019-04-29T13:25:26.919Z,331.88
2019-04-29T13:26:28.713Z,337.50
2019-04-29T13:27:26.697Z,326.25
2019-04-29T13:28:30.183Z,326.25
2019-04-29T13:29:27.948Z,331.88
2019-04-29T13:30:27.890Z,348.75
2019-04-29T13:31:37.987Z,343.12
2019-04-29T13:32:29.745Z,331.88
2019-04-29T13:33:26.359Z,337.50
2019-04-29T13:34:31.064Z,326.25
2019-04-29T13:35:27.349Z,320.62
2019-04-29T13:36:27.387Z,309.38
2019-04-29T13:37:26.304Z,309.38
2019-04-29T13:38:26.312Z,309.38
2019-04-29T13:39:39.355Z,309.38
2019-04-29T13:40:27.272Z,298.12
2019-04-29T13:41:26.296Z,298.12
2019-04-29T13:42:26.255Z,303.75
2019-04-29T13:43:27.204Z,303.75
2019-04-29T13:44:26.231Z,315.00
2019-04-29T13:45:26.442Z,382.50
2019-04-29T13:46:26.227Z,354.38
2019-04-29T13:47:29.280Z,354.38
2019-04-29T13:48:26.188Z,365.62
2019-04-29T13:49:26.235Z,416.25
2019-04-29T13:50:38.728Z,405.00
2019-04-29T13:51:36.287Z,511.88
2019-04-29T13:52:27.137Z,1091.25
2019-04-29T13:53:26.130Z,798.75
2019-04-29T13:54:26.159Z,883.12
2019-04-29T13:55:47.144Z,416.25
2019-04-29T13:56:39.244Z,405.00
2019-04-29T13:57:27.085Z,405.00
2019-04-29T13:58:27.172Z,466.88
2019-04-29T13:59:26.071Z,427.50
2019-04-29T14:00:26.401Z,815.62
2019-04-29T14:01:32.956Z,573.75
2019-04-29T14:02:31.400Z,534.38
2019-04-29T14:03:27.033Z,523.12
2019-04-29T14:04:26.283Z,506.25
2019-04-29T14:05:25.997Z,495.00
2019-04-29T14:06:26.029Z,455.62
2019-04-29T14:07:25.979Z,444.38
2019-04-29T14:08:28.710Z,433.12
2019-04-29T14:09:25.997Z,421.88
2019-04-29T14:10:25.944Z,421.88
2019-04-29T14:11:27.650Z,393.75
2019-04-29T14:12:47.844Z,393.75
2019-04-29T14:13:26.918Z,399.38
2019-04-29T14:14:28.256Z,399.38
2019-04-29T14:15:29.630Z,393.75
2019-04-29T14:16:26.872Z,405.00
2019-04-29T14:17:27.041Z,399.38
2019-04-29T14:18:26.870Z,405.00
2019-04-29T14:19:40.255Z,427.50
2019-04-29T14:20:26.834Z,438.75
2019-04-29T14:21:30.049Z,399.38
2019-04-29T14:22:26.892Z,388.12
2019-04-29T14:23:25.797Z,388.12
2019-04-29T14:24:25.789Z,388.12
2019-04-29T14:25:25.791Z,382.50
2019-04-29T14:26:25.793Z,399.38
2019-04-29T14:27:25.790Z,405.00
2019-04-29T14:28:25.744Z,416.25
2019-04-29T14:29:28.271Z,416.25
2019-04-29T14:30:37.841Z,410.62
2019-04-29T14:31:30.062Z,405.00
2019-04-29T14:32:34.553Z,405.00
2019-04-29T14:33:26.694Z,388.12
2019-04-29T14:34:25.679Z,399.38
2019-04-29T14:35:25.732Z,393.75
2019-04-29T14:36:26.362Z,376.88
2019-04-29T14:37:25.728Z,376.88
2019-04-29T14:38:25.685Z,388.12
2019-04-29T14:39:36.860Z,376.88
2019-04-29T14:40:26.610Z,354.38
2019-04-29T14:41:25.595Z,343.12
2019-04-29T14:42:29.713Z,331.88
2019-04-29T14:43:30.736Z,337.50
2019-04-29T14:44:29.933Z,326.25
2019-04-29T14:45:25.557Z,331.88
2019-04-29T14:46:25.569Z,331.88
2019-04-29T14:47:25.536Z,343.12
2019-04-29T14:48:25.540Z,360.00
2019-04-29T14:49:25.522Z,331.88
2019-04-29T14:50:25.504Z,315.00
2019-04-29T14:51:27.885Z,292.50
2019-04-29T14:52:26.484Z,286.88
2019-04-29T14:53:26.248Z,258.75
2019-04-29T14:54:25.472Z,247.50
2019-04-29T14:55:27.077Z,241.88
2019-04-29T14:56:25.428Z,253.12
2019-04-29T14:57:25.448Z,258.75
2019-04-29T14:58:25.441Z,258.75
2019-04-29T14:59:25.636Z,258.75
2019-04-29T15:00:25.629Z,264.38
2019-04-29T15:01:25.474Z,281.25
2019-04-29T15:02:25.393Z,354.38
2019-04-29T15:03:25.446Z,320.62
2019-04-29T15:04:25.395Z,241.88
2019-04-29T15:05:25.383Z,241.88
2019-04-29T15:06:28.536Z,236.25
2019-04-29T15:07:25.366Z,253.12
2019-04-29T15:08:25.336Z,225.00
2019-04-29T15:09:25.351Z,219.38
2019-04-29T15:10:26.691Z,230.62
2019-04-29T15:11:31.813Z,247.50
2019-04-29T15:12:26.257Z,219.38
2019-04-29T15:13:25.287Z,208.12
2019-04-29T15:14:25.978Z,303.75
2019-04-29T15:15:25.219Z,393.75
2019-04-29T15:16:25.217Z,354.38
2019-04-29T15:17:25.466Z,247.50
2019-04-29T15:18:45.419Z,270.00
2019-04-29T15:19:26.196Z,331.88
2019-04-29T15:20:31.496Z,444.38
2019-04-29T15:21:32.807Z,393.75
2019-04-29T15:22:26.171Z,236.25
2019-04-29T15:23:28.922Z,225.00
2019-04-29T15:24:27.594Z,185.62
2019-04-29T15:25:26.109Z,196.88
2019-04-29T15:26:25.095Z,191.25
2019-04-29T15:27:25.099Z,191.25
2019-04-29T15:28:25.070Z,433.12
2019-04-29T15:29:25.105Z,241.88
2019-04-29T15:30:25.068Z,247.50
2019-04-29T15:31:25.032Z,399.38
2019-04-29T15:32:25.030Z,253.12
2019-04-29T15:33:25.040Z,236.25
2019-04-29T15:34:25.065Z,219.38
2019-04-29T15:35:25.564Z,196.88
2019-04-29T15:36:24.978Z,185.62
2019-04-29T15:37:24.969Z,180.00
2019-04-29T15:38:24.970Z,292.50
2019-04-29T15:39:25.878Z,326.25
2019-04-29T15:40:26.007Z,236.25
2019-04-29T15:41:29.732Z,196.88
2019-04-29T15:42:25.960Z,264.38
2019-04-29T15:43:45.718Z,298.12
2019-04-29T15:44:25.886Z,360.00
2019-04-29T15:45:27.993Z,365.62
2019-04-29T15:46:25.869Z,399.38
2019-04-29T15:47:30.666Z,337.50
2019-04-29T15:48:25.848Z,230.62
2019-04-29T15:49:26.520Z,506.25
2019-04-29T15:50:24.847Z,219.38
2019-04-29T15:51:24.833Z,399.38
2019-04-29T15:52:26.094Z,832.50
2019-04-29T15:53:24.798Z,438.75
2019-04-29T15:54:26.113Z,180.00
2019-04-29T15:55:24.797Z,180.00
2019-04-29T15:57:25.747Z,691.88
2019-04-29T15:58:27.701Z,646.88
2019-04-29T15:59:24.738Z,601.88
2019-04-29T16:00:25.457Z,714.38
2019-04-29T16:01:27.925Z,933.75
2019-04-29T16:02:25.802Z,821.25
2019-04-29T16:03:24.720Z,939.38
2019-04-29T16:04:27.704Z,686.25
2019-04-29T16:05:25.791Z,196.88
2019-04-29T16:06:24.650Z,180.00
2019-04-29T16:07:24.634Z,163.12
2019-04-29T16:08:29.279Z,168.75
2019-04-29T16:09:30.438Z,174.38
2019-04-29T16:10:25.602Z,168.75
2019-04-29T16:11:29.006Z,163.12
2019-04-29T16:12:25.592Z,157.50
2019-04-29T16:13:27.789Z,157.50
2019-04-29T16:14:24.558Z,151.88
2019-04-29T16:15:24.554Z,151.88
2019-04-29T16:16:24.577Z,151.88
2019-04-29T16:17:24.531Z,146.25
2019-04-29T16:18:24.531Z,140.62
2019-04-29T16:19:24.504Z,135.00
2019-04-29T16:20:24.507Z,135.00
2019-04-29T16:21:24.516Z,135.00
2019-04-29T16:22:24.467Z,135.00
2019-04-29T16:23:24.463Z,135.00
2019-04-29T16:24:26.750Z,129.38
2019-04-29T16:25:24.448Z,129.38
2019-04-29T16:26:25.004Z,123.75
2019-04-29T16:27:25.414Z,123.75
2019-04-29T16:28:31.779Z,123.75
2019-04-29T16:29:25.391Z,123.75
2019-04-29T16:30:25.966Z,123.75
2019-04-29T16:31:25.393Z,118.12
2019-04-29T16:32:24.367Z,118.12
2019-04-29T16:33:24.341Z,112.50
2019-04-29T16:34:24.343Z,106.88
2019-04-29T16:35:27.026Z,106.88
2019-04-29T16:36:25.336Z,106.88
2019-04-29T16:37:25.007Z,106.88
2019-04-29T16:38:25.291Z,101.25
2019-04-29T16:39:24.293Z,101.25
2019-04-29T16:40:24.274Z,101.25
2019-04-29T16:41:24.285Z,95.62
2019-04-29T16:42:24.251Z,95.62
2019-04-29T16:43:27.768Z,95.62
2019-04-29T16:44:35.593Z,95.62
2019-04-29T16:45:25.233Z,90.00
2019-04-29T16:46:35.385Z,90.00
2019-04-29T16:47:25.216Z,90.00
2019-04-29T16:48:24.188Z,90.00
2019-04-29T16:49:24.183Z,84.38
2019-04-29T16:50:24.187Z,84.38
2019-04-29T16:51:24.152Z,84.38
2019-04-29T16:52:24.167Z,84.38
2019-04-29T16:53:24.119Z,78.75
2019-04-29T16:54:28.123Z,78.75
2019-04-29T16:55:24.104Z,78.75
2019-04-29T16:56:24.089Z,78.75
2019-04-29T16:57:24.100Z,73.12
2019-04-29T16:58:24.070Z,73.12
2019-04-29T16:59:24.066Z,73.12
2019-04-29T17:00:24.046Z,73.12
2019-04-29T17:01:24.029Z,73.12
2019-04-29T17:02:24.040Z,67.50
2019-04-29T17:03:24.006Z,67.50
2019-04-29T17:04:23.997Z,67.50
2019-04-29T17:05:23.996Z,67.50
2019-04-29T17:06:24.007Z,67.50
2019-04-29T17:07:23.984Z,67.50
2019-04-29T17:08:23.951Z,67.50
2019-04-29T17:09:23.962Z,67.50
2019-04-29T17:10:23.945Z,67.50
2019-04-29T17:11:24.007Z,67.50
2019-04-29T17:12:29.357Z,67.50
2019-04-29T17:13:24.903Z,67.50
2019-04-29T17:14:23.892Z,61.88
2019-04-29T17:15:25.024Z,61.88
2019-04-29T17:16:23.897Z,61.88
2019-04-29T17:17:28.945Z,61.88
2019-04-29T17:18:24.924Z,61.88
2019-04-29T17:19:23.841Z,56.25
2019-04-29T17:20:23.823Z,56.25
2019-04-29T17:21:23.823Z,56.25
2019-04-29T17:22:25.933Z,56.25
2019-04-29T17:23:24.637Z,56.25
2019-04-29T17:24:23.783Z,56.25
2019-04-29T17:25:23.763Z,56.25
2019-04-29T17:26:23.754Z,50.62
2019-04-29T17:27:23.756Z,50.62
2019-04-29T17:28:25.476Z,50.62
2019-04-29T17:29:38.428Z,50.62
2019-04-29T17:30:25.010Z,50.62
2019-04-29T17:31:24.171Z,50.62
2019-04-29T17:32:24.630Z,45.00
2019-04-29T17:33:28.169Z,45.00
2019-04-29T17:34:54.918Z,45.00
2019-04-29T17:35:17.751Z,388.12
2019-04-29T17:36:25.722Z,45.00
2019-04-29T17:37:23.657Z,45.00
2019-04-29T17:38:23.648Z,39.38
2019-04-29T17:39:23.624Z,39.38
2019-04-29T17:40:23.603Z,39.38
2019-04-29T17:41:23.585Z,39.38
2019-04-29T17:42:23.603Z,39.38
2019-04-29T17:43:23.591Z,39.38
2019-04-29T17:44:23.567Z,33.75
2019-04-29T17:45:30.697Z,33.75
2019-04-29T17:46:24.556Z,33.75
2019-04-29T17:47:23.548Z,33.75
2019-04-29T17:48:23.558Z,33.75
2019-04-29T17:49:29.454Z,33.75
2019-04-29T17:50:30.651Z,33.75
2019-04-29T17:51:24.828Z,28.12
2019-04-29T17:52:25.811Z,28.12
2019-04-29T17:53:24.963Z,28.12
2019-04-29T17:54:23.462Z,28.12
2019-04-29T17:55:24.966Z,28.12
2019-04-29T17:56:24.884Z,28.12
2019-04-29T17:57:31.112Z,22.50
2019-04-29T17:58:25.867Z,22.50
2019-04-29T17:59:29.678Z,22.50
2019-04-29T18:00:26.064Z,22.50
2019-04-29T18:01:25.478Z,22.50
2019-04-29T18:02:25.423Z,22.50
2019-04-29T18:03:25.144Z,16.88
2019-04-29T18:04:23.380Z,16.88
2019-04-29T18:05:26.912Z,16.88
2019-04-29T18:06:26.266Z,16.88
2019-04-29T18:07:25.086Z,16.88
2019-04-29T18:08:23.302Z,16.88
2019-04-29T18:09:23.422Z,16.88
2019-04-29T18:10:25.332Z,16.88
2019-04-29T18:11:25.066Z,11.25
2019-04-29T18:12:24.889Z,11.25
2019-04-29T18:13:24.610Z,11.25
2019-04-29T18:14:24.742Z,11.25
2019-04-29T18:15:23.233Z,11.25
2019-04-29T18:16:27.862Z,11.25
2019-04-29T18:17:28.894Z,11.25
2019-04-29T18:18:26.328Z,5.62
2019-04-29T18:19:23.223Z,5.62
2019-04-29T18:20:32.192Z,5.62
2019-04-29T18:21:25.095Z,5.62
2019-04-29T18:22:24.765Z,5.62
2019-04-29T18:23:23.183Z,5.62
2019-04-29T18:24:23.125Z,5.62
2019-04-29T18:25:30.748Z,5.62
2019-04-29T18:26:25.719Z,5.62
2019-04-29T18:27:23.137Z,5.62
2019-04-29T18:28:23.086Z,0.00
2019-04-29T18:29:23.062Z,0.00
2019-04-29T18:30:34.691Z,0.00
2019-04-29T18:31:26.488Z,0.00
2019-04-29T18:32:35.003Z,0.00
2019-04-29T18:33:29.863Z,0.00
2019-04-29T18:34:25.252Z,0.00
2019-04-29T18:35:23.028Z,0.00
2019-04-29T18:36:24.823Z,0.00
2019-04-29T18:37:24.885Z,0.00
2019-04-29T18:38:26.079Z,0.00
2019-04-29T18:39:24.983Z,0.00
2019-04-29T18:40:25.744Z,0.00